createdAt,value
2017-09-13T00:00:02.551Z,0
2017-09-13T00:01:03.953Z,0
2017-09-13T00:02:25.441Z,0
2017-09-13T00:03:26.842Z,0
2017-09-13T00:04:48.350Z,0
2017-09-13T00:05:49.757Z,0
2017-09-13T00:07:11.250Z,0
2017-09-13T00:08:12.648Z,0
2017-09-13T00:09:34.139Z,0
2017-09-13T00:10:35.540Z,0
2017-09-13T00:11:57.052Z,0
2017-09-13T00:12:58.457Z,0
2017-09-13T00:14:19.940Z,0
2017-09-13T00:15:21.340Z,0
2017-09-13T00:16:42.850Z,0
2017-09-13T00:17:44.253Z,0
2017-09-13T00:19:05.742Z,0
2017-09-13T00:20:07.142Z,0
2017-09-13T00:21:28.649Z,0
2017-09-13T00:22:30.049Z,0
2017-09-13T00:23:51.538Z,0
2017-09-13T00:24:52.937Z,0
2017-09-13T00:26:14.448Z,0
2017-09-13T00:27:15.863Z,0
2017-09-13T00:28:37.352Z,0
2017-09-13T00:29:38.751Z,0
2017-09-13T00:31:00.259Z,0
2017-09-13T00:32:01.659Z,0
2017-09-13T00:33:23.147Z,0
2017-09-13T00:34:24.549Z,0
2017-09-13T00:35:46.059Z,0
2017-09-13T00:36:47.460Z,0
2017-09-13T00:38:08.952Z,0
2017-09-13T00:39:10.351Z,0
2017-09-13T00:40:31.864Z,0
2017-09-13T00:41:33.267Z,0
2017-09-13T00:42:54.757Z,0
2017-09-13T00:43:56.158Z,0
2017-09-13T00:45:18.665Z,0
2017-09-13T00:46:20.062Z,0
2017-09-13T00:47:41.551Z,0
2017-09-13T00:48:42.952Z,0
2017-09-13T00:50:04.463Z,0
2017-09-13T00:51:05.866Z,0
2017-09-13T00:52:27.359Z,0
2017-09-13T00:53:28.757Z,0
2017-09-13T00:54:50.248Z,0
2017-09-13T00:55:51.647Z,0
2017-09-13T00:57:13.161Z,0
2017-09-13T00:58:14.560Z,0
2017-09-13T00:59:36.046Z,0
2017-09-13T01:00:37.445Z,0
2017-09-13T01:01:58.951Z,0
2017-09-13T01:03:00.359Z,0
2017-09-13T01:04:21.843Z,0
2017-09-13T01:05:23.243Z,0
2017-09-13T01:06:44.948Z,0
2017-09-13T01:07:46.348Z,0
2017-09-13T01:09:07.842Z,0
2017-09-13T01:10:09.239Z,0
2017-09-13T01:11:30.748Z,0
2017-09-13T01:12:32.153Z,0
2017-09-13T01:13:53.643Z,0
2017-09-13T01:14:55.046Z,0
2017-09-13T01:16:16.556Z,0
2017-09-13T01:17:17.958Z,0
2017-09-13T01:18:39.444Z,0
2017-09-13T01:19:40.844Z,0
2017-09-13T01:21:02.356Z,0
2017-09-13T01:22:03.758Z,0
2017-09-13T01:23:25.243Z,0
2017-09-13T01:24:26.644Z,0
2017-09-13T01:25:48.151Z,0
2017-09-13T01:26:49.557Z,0
2017-09-13T01:28:11.045Z,0
2017-09-13T01:29:12.444Z,0
2017-09-13T01:30:33.951Z,0
2017-09-13T01:31:35.351Z,0
2017-09-13T01:32:56.838Z,0
2017-09-13T01:33:58.239Z,0
2017-09-13T01:35:19.768Z,0
2017-09-13T01:36:21.171Z,0
2017-09-13T01:37:42.658Z,0
2017-09-13T01:38:44.059Z,0
2017-09-13T01:40:05.548Z,0
2017-09-13T01:41:06.949Z,0
2017-09-13T01:42:28.460Z,0
2017-09-13T01:43:29.861Z,0
2017-09-13T01:44:51.346Z,0
2017-09-13T01:45:52.748Z,0
2017-09-13T01:47:14.256Z,0
2017-09-13T01:48:15.657Z,0
2017-09-13T01:49:37.143Z,0
2017-09-13T01:50:38.546Z,0
2017-09-13T01:52:00.053Z,0
2017-09-13T01:53:01.454Z,0
2017-09-13T01:54:22.943Z,0
2017-09-13T01:55:24.344Z,0
2017-09-13T01:56:45.855Z,0
2017-09-13T01:57:47.258Z,0
2017-09-13T01:59:08.745Z,0
2017-09-13T02:00:10.147Z,0
2017-09-13T02:01:31.656Z,0
2017-09-13T02:02:33.059Z,0
2017-09-13T02:03:54.542Z,0
2017-09-13T02:04:55.947Z,0
2017-09-13T02:06:17.455Z,0
2017-09-13T02:07:18.855Z,0
2017-09-13T02:08:40.349Z,0
2017-09-13T02:09:41.749Z,0
2017-09-13T02:11:04.253Z,0
2017-09-13T02:12:05.653Z,0
2017-09-13T02:13:27.145Z,0
2017-09-13T02:14:28.544Z,0
2017-09-13T02:15:50.058Z,0
2017-09-13T02:16:51.458Z,0
2017-09-13T02:18:12.943Z,0
2017-09-13T02:19:14.343Z,0
2017-09-13T02:20:35.837Z,0
2017-09-13T02:21:37.234Z,0
2017-09-13T02:22:58.741Z,0
2017-09-13T02:24:00.144Z,0
2017-09-13T02:25:21.632Z,0
2017-09-13T02:26:23.038Z,0
2017-09-13T02:27:44.545Z,0
2017-09-13T02:28:45.945Z,0
2017-09-13T02:30:07.439Z,0
2017-09-13T02:31:08.838Z,0
2017-09-13T02:32:30.348Z,0
2017-09-13T02:33:31.750Z,0
2017-09-13T02:34:53.236Z,0
2017-09-13T02:35:54.636Z,0
2017-09-13T02:37:16.146Z,0
2017-09-13T02:38:17.547Z,0
2017-09-13T02:39:39.041Z,0
2017-09-13T02:40:40.431Z,0
2017-09-13T02:42:01.952Z,0
2017-09-13T02:43:03.354Z,0
2017-09-13T02:44:24.851Z,0
2017-09-13T02:45:26.249Z,0
2017-09-13T02:46:47.756Z,0
2017-09-13T02:47:49.158Z,0
2017-09-13T02:49:10.647Z,0
2017-09-13T02:50:12.057Z,0
2017-09-13T02:51:33.560Z,0
2017-09-13T02:52:34.962Z,0
2017-09-13T02:53:56.450Z,0
2017-09-13T02:54:57.848Z,0
2017-09-13T02:56:19.357Z,0
2017-09-13T02:57:20.757Z,0
2017-09-13T02:58:42.244Z,0
2017-09-13T02:59:43.648Z,0
2017-09-13T03:01:05.160Z,0
2017-09-13T03:02:06.562Z,0
2017-09-13T03:03:28.044Z,0
2017-09-13T03:04:29.446Z,0
2017-09-13T03:05:50.938Z,0
2017-09-13T03:06:52.341Z,0
2017-09-13T03:08:13.851Z,0
2017-09-13T03:09:15.262Z,0
2017-09-13T03:10:36.739Z,0
2017-09-13T03:11:38.141Z,0
2017-09-13T03:12:59.651Z,0
2017-09-13T03:14:01.049Z,0
2017-09-13T03:15:22.537Z,0
2017-09-13T03:16:23.937Z,0
2017-09-13T03:17:45.453Z,0
2017-09-13T03:18:46.855Z,0
2017-09-13T03:20:08.345Z,0
2017-09-13T03:21:09.752Z,0
2017-09-13T03:22:31.262Z,0
2017-09-13T03:23:32.665Z,0
2017-09-13T03:24:54.150Z,0
2017-09-13T03:25:55.549Z,0
2017-09-13T03:27:17.057Z,0
2017-09-13T03:28:18.458Z,0
2017-09-13T03:29:39.947Z,0
2017-09-13T03:30:41.350Z,0
2017-09-13T03:32:02.885Z,0
2017-09-13T03:33:04.259Z,0
2017-09-13T03:34:25.743Z,0
2017-09-13T03:35:27.143Z,0
2017-09-13T03:36:48.651Z,0
2017-09-13T03:37:50.056Z,0
2017-09-13T03:39:11.539Z,0
2017-09-13T03:40:12.943Z,0
2017-09-13T03:41:34.454Z,0
2017-09-13T03:42:35.854Z,0
2017-09-13T03:43:57.348Z,0
2017-09-13T03:44:58.748Z,0
2017-09-13T03:46:20.241Z,0
2017-09-13T03:47:21.641Z,0
2017-09-13T03:48:43.149Z,0
2017-09-13T03:49:44.550Z,0
2017-09-13T03:51:06.038Z,0
2017-09-13T03:52:07.439Z,0
2017-09-13T03:53:28.947Z,0
2017-09-13T03:54:30.347Z,0
2017-09-13T03:55:51.835Z,0
2017-09-13T03:56:53.236Z,0
2017-09-13T03:58:14.743Z,0
2017-09-13T03:59:16.155Z,0
2017-09-13T04:00:37.648Z,0
2017-09-13T04:01:39.047Z,0
2017-09-13T04:03:00.744Z,0
2017-09-13T04:04:02.143Z,0
2017-09-13T04:05:23.630Z,0
2017-09-13T04:06:25.028Z,0
2017-09-13T04:07:46.539Z,0
2017-09-13T04:08:47.940Z,0
2017-09-13T04:10:09.426Z,0
2017-09-13T04:11:10.834Z,0
2017-09-13T04:12:32.343Z,0
2017-09-13T04:13:33.944Z,0
2017-09-13T04:14:55.825Z,0
2017-09-13T04:15:57.177Z,0
2017-09-13T04:17:18.718Z,0
2017-09-13T04:18:20.138Z,0
2017-09-13T04:19:41.626Z,0
2017-09-13T04:20:43.026Z,0
2017-09-13T04:22:04.573Z,0
2017-09-13T04:23:05.973Z,0
2017-09-13T04:24:27.463Z,0
2017-09-13T04:25:28.863Z,0
2017-09-13T04:26:50.372Z,0
2017-09-13T04:27:51.776Z,0
2017-09-13T04:29:13.268Z,0
2017-09-13T04:30:14.666Z,0
2017-09-13T04:31:36.157Z,0
2017-09-13T04:32:37.558Z,0
2017-09-13T04:33:59.074Z,0
2017-09-13T04:35:00.887Z,0
2017-09-13T04:36:22.384Z,0
2017-09-13T04:37:23.781Z,0
2017-09-13T04:38:45.293Z,4
2017-09-13T04:39:46.728Z,4
2017-09-13T04:41:08.217Z,4
2017-09-13T04:42:09.617Z,4
2017-09-13T04:43:31.125Z,4
2017-09-13T04:44:32.526Z,4
2017-09-13T04:45:54.017Z,4
2017-09-13T04:46:55.415Z,4
2017-09-13T04:48:16.924Z,4
2017-09-13T04:49:18.330Z,4
2017-09-13T04:50:39.819Z,8
2017-09-13T04:51:41.220Z,16
2017-09-13T04:53:02.728Z,16
2017-09-13T04:54:04.128Z,20
2017-09-13T04:55:25.806Z,28
2017-09-13T04:56:27.758Z,36
2017-09-13T04:57:49.244Z,32
2017-09-13T04:58:50.648Z,44
2017-09-13T05:00:12.137Z,52
2017-09-13T05:01:13.545Z,48
2017-09-13T05:02:35.052Z,48
2017-09-13T05:03:36.455Z,60
2017-09-13T05:04:57.943Z,64
2017-09-13T05:05:59.348Z,72
2017-09-13T05:07:20.872Z,76
2017-09-13T05:08:22.280Z,112
2017-09-13T05:09:43.773Z,120
2017-09-13T05:10:45.174Z,116
2017-09-13T05:12:06.689Z,108
2017-09-13T05:13:08.142Z,108
2017-09-13T05:14:29.634Z,120
2017-09-13T05:15:31.035Z,152
2017-09-13T05:16:52.531Z,160
2017-09-13T05:17:53.951Z,188
2017-09-13T05:19:15.452Z,148
2017-09-13T05:20:16.860Z,148
2017-09-13T05:21:38.349Z,180
2017-09-13T05:22:39.786Z,244
2017-09-13T05:24:01.266Z,244
2017-09-13T05:25:02.670Z,256
2017-09-13T05:26:24.166Z,256
2017-09-13T05:27:25.572Z,296
2017-09-13T05:28:47.085Z,244
2017-09-13T05:29:48.491Z,236
2017-09-13T05:31:09.988Z,252
2017-09-13T05:32:11.391Z,260
2017-09-13T05:33:32.900Z,372
2017-09-13T05:34:34.305Z,412
2017-09-13T05:35:55.792Z,508
2017-09-13T05:36:57.197Z,640
2017-09-13T05:38:18.706Z,800
2017-09-13T05:39:20.116Z,564
2017-09-13T05:40:41.603Z,360
2017-09-13T05:41:43.006Z,244
2017-09-13T05:43:04.522Z,300
2017-09-13T05:44:05.925Z,392
2017-09-13T05:45:27.417Z,772
2017-09-13T05:46:28.820Z,648
2017-09-13T05:47:50.340Z,520
2017-09-13T05:48:51.741Z,528
2017-09-13T05:50:13.231Z,624
2017-09-13T05:51:14.637Z,544
2017-09-13T05:52:36.156Z,660
2017-09-13T05:53:37.568Z,600
2017-09-13T05:54:59.052Z,532
2017-09-13T05:56:00.452Z,420
2017-09-13T05:57:21.966Z,460
2017-09-13T05:58:23.372Z,736
2017-09-13T05:59:44.868Z,988
2017-09-13T06:00:46.270Z,972
2017-09-13T06:02:07.761Z,1120
2017-09-13T06:03:09.163Z,732
2017-09-13T06:04:30.678Z,820
2017-09-13T06:05:32.081Z,584
2017-09-13T06:06:53.574Z,440
2017-09-13T06:07:54.986Z,496
2017-09-13T06:09:16.509Z,572
2017-09-13T06:10:17.922Z,752
2017-09-13T06:11:39.413Z,812
2017-09-13T06:12:40.819Z,920
2017-09-13T06:14:02.337Z,1228
2017-09-13T06:15:03.738Z,1320
2017-09-13T06:16:25.233Z,724
2017-09-13T06:17:26.635Z,984
2017-09-13T06:18:48.148Z,1332
2017-09-13T06:19:49.554Z,1092
2017-09-13T06:21:11.045Z,720
2017-09-13T06:22:12.450Z,1468
2017-09-13T06:23:33.971Z,1080
2017-09-13T06:24:35.376Z,948
2017-09-13T06:25:56.866Z,1076
2017-09-13T06:26:58.271Z,856
2017-09-13T06:28:19.784Z,888
2017-09-13T06:29:21.188Z,1496
2017-09-13T06:30:42.680Z,1096
2017-09-13T06:31:44.081Z,660
2017-09-13T06:33:05.599Z,496
2017-09-13T06:34:07.006Z,776
2017-09-13T06:35:28.500Z,1456
2017-09-13T06:36:29.905Z,2200
2017-09-13T06:37:51.415Z,1740
2017-09-13T06:38:52.827Z,1292
2017-09-13T06:40:14.320Z,1316
2017-09-13T06:41:15.733Z,2064
2017-09-13T06:42:37.246Z,2104
2017-09-13T06:43:38.657Z,1292
2017-09-13T06:45:00.164Z,1568
2017-09-13T06:46:01.570Z,1784
2017-09-13T06:47:23.064Z,1564
2017-09-13T06:48:24.473Z,1124
2017-09-13T06:49:45.984Z,1340
2017-09-13T06:50:47.391Z,1128
2017-09-13T06:52:08.881Z,1328
2017-09-13T06:53:10.286Z,904
2017-09-13T06:54:31.801Z,1536
2017-09-13T06:55:33.206Z,1348
2017-09-13T06:56:54.698Z,1808
2017-09-13T06:57:56.107Z,1044
2017-09-13T06:59:17.619Z,2072
2017-09-13T07:00:19.030Z,3004
2017-09-13T07:01:40.525Z,3264
2017-09-13T07:02:41.932Z,2816
2017-09-13T07:04:03.448Z,6168
2017-09-13T07:05:04.857Z,3648
2017-09-13T07:06:26.355Z,3080
2017-09-13T07:07:27.763Z,4300
2017-09-13T07:08:49.286Z,3476
2017-09-13T07:09:50.692Z,3648
2017-09-13T07:11:12.188Z,3016
2017-09-13T07:12:13.593Z,4636
2017-09-13T07:13:35.109Z,5280
2017-09-13T07:14:36.518Z,4692
2017-09-13T07:15:58.019Z,4520
2017-09-13T07:16:59.422Z,5492
2017-09-13T07:18:20.937Z,4624
2017-09-13T07:19:22.349Z,5912
2017-09-13T07:20:43.849Z,4832
2017-09-13T07:21:45.255Z,4196
2017-09-13T07:23:06.771Z,5824
2017-09-13T07:24:08.178Z,4564
2017-09-13T07:25:29.677Z,5404
2017-09-13T07:26:31.100Z,5064
2017-09-13T07:27:52.580Z,4444
2017-09-13T07:28:53.987Z,3860
2017-09-13T07:30:15.504Z,4236
2017-09-13T07:31:16.908Z,3764
2017-09-13T07:32:38.401Z,5180
2017-09-13T07:33:39.807Z,4416
2017-09-13T07:35:01.323Z,4696
2017-09-13T07:36:02.733Z,5184
2017-09-13T07:37:24.231Z,5780
2017-09-13T07:38:25.636Z,5368
2017-09-13T07:39:47.155Z,4072
2017-09-13T07:40:48.565Z,3760
2017-09-13T07:42:10.058Z,3644
2017-09-13T07:43:11.464Z,4572
2017-09-13T07:44:32.980Z,3460
2017-09-13T07:45:34.391Z,3516
2017-09-13T07:46:55.882Z,3988
2017-09-13T07:47:57.299Z,5228
2017-09-13T07:49:18.808Z,7152
2017-09-13T07:50:20.221Z,7316
2017-09-13T07:51:41.714Z,7928
2017-09-13T07:52:43.122Z,7880
2017-09-13T07:54:04.636Z,8268
2017-09-13T07:55:06.046Z,8316
2017-09-13T07:56:27.543Z,8068
2017-09-13T07:57:28.952Z,7984
2017-09-13T07:58:50.474Z,8364
2017-09-13T07:59:51.883Z,8144
2017-09-13T08:01:13.382Z,7900
2017-09-13T08:02:14.791Z,8560
2017-09-13T08:03:36.309Z,6964
2017-09-13T08:04:37.720Z,7560
2017-09-13T08:05:59.214Z,8380
2017-09-13T08:07:00.622Z,9116
2017-09-13T08:08:22.143Z,9304
2017-09-13T08:09:23.551Z,9632
2017-09-13T08:10:45.049Z,7964
2017-09-13T08:11:46.457Z,7064
2017-09-13T08:13:07.956Z,4124
2017-09-13T08:14:09.366Z,4408
2017-09-13T08:15:30.884Z,3748
2017-09-13T08:16:32.291Z,3652
2017-09-13T08:17:53.791Z,4080
2017-09-13T08:18:55.199Z,5428
2017-09-13T08:20:16.721Z,3808
2017-09-13T08:21:18.130Z,3932
2017-09-13T08:22:39.628Z,3752
2017-09-13T08:23:41.036Z,4264
2017-09-13T08:25:02.552Z,3724
2017-09-13T08:26:03.960Z,3632
2017-09-13T08:27:25.461Z,3828
2017-09-13T08:28:26.872Z,3360
2017-09-13T08:29:48.382Z,3972
2017-09-13T08:30:49.792Z,5328
2017-09-13T08:32:11.289Z,2292
2017-09-13T08:33:12.699Z,2868
2017-09-13T08:34:34.213Z,3508
2017-09-13T08:35:35.626Z,3316
2017-09-13T08:36:57.160Z,3952
2017-09-13T08:37:58.528Z,4076
2017-09-13T08:39:20.051Z,7784
2017-09-13T08:40:21.459Z,6220
2017-09-13T08:41:42.959Z,8816
2017-09-13T08:42:44.365Z,6284
2017-09-13T08:44:05.893Z,6288
2017-09-13T08:45:07.297Z,7284
2017-09-13T08:46:28.795Z,6468
2017-09-13T08:47:30.202Z,5420
2017-09-13T08:48:51.722Z,5824
2017-09-13T08:49:53.132Z,6664
2017-09-13T08:51:14.628Z,4876
2017-09-13T08:52:16.035Z,4536
2017-09-13T08:53:37.552Z,7036
2017-09-13T08:54:38.961Z,7900
2017-09-13T08:56:00.462Z,9744
2017-09-13T08:57:01.873Z,11620
2017-09-13T08:58:23.415Z,11260
2017-09-13T08:59:24.825Z,10672
2017-09-13T09:00:46.341Z,8936
2017-09-13T09:01:47.752Z,10264
2017-09-13T09:03:09.250Z,10648
2017-09-13T09:04:10.659Z,7492
2017-09-13T09:05:32.178Z,9236
2017-09-13T09:06:33.589Z,9788
2017-09-13T09:07:55.091Z,9760
2017-09-13T09:08:56.501Z,10352
2017-09-13T09:10:18.019Z,11256
2017-09-13T09:11:19.431Z,10196
2017-09-13T09:12:40.930Z,9540
2017-09-13T09:13:42.341Z,10940
2017-09-13T09:15:03.869Z,11740
2017-09-13T09:16:05.277Z,10896
2017-09-13T09:17:26.776Z,8588
2017-09-13T09:18:28.185Z,8316
2017-09-13T09:19:49.707Z,10328
2017-09-13T09:20:51.120Z,11520
2017-09-13T09:22:12.620Z,8312
2017-09-13T09:23:14.029Z,7936
2017-09-13T09:24:35.550Z,7056
2017-09-13T09:25:36.960Z,7840
2017-09-13T09:26:58.462Z,10532
2017-09-13T09:27:59.872Z,11936
2017-09-13T09:29:21.415Z,11924
2017-09-13T09:30:22.830Z,11508
2017-09-13T09:31:44.329Z,9676
2017-09-13T09:32:45.739Z,8760
2017-09-13T09:34:07.259Z,8104
2017-09-13T09:35:08.669Z,9360
2017-09-13T09:36:30.170Z,5852
2017-09-13T09:37:31.581Z,5408
2017-09-13T09:38:53.121Z,5544
2017-09-13T09:39:54.532Z,6084
2017-09-13T09:41:16.039Z,4608
2017-09-13T09:42:17.446Z,2516
2017-09-13T09:43:38.945Z,3156
2017-09-13T09:44:40.355Z,2528
2017-09-13T09:46:01.891Z,3876
2017-09-13T09:47:03.295Z,3372
2017-09-13T09:48:24.793Z,5192
2017-09-13T09:49:26.203Z,6232
2017-09-13T09:50:47.726Z,8160
2017-09-13T09:51:49.145Z,9136
2017-09-13T09:53:10.645Z,11916
2017-09-13T09:54:12.055Z,9012
2017-09-13T09:55:33.574Z,9236
2017-09-13T09:56:34.987Z,9360
2017-09-13T09:57:56.495Z,11636
2017-09-13T09:58:57.911Z,10412
2017-09-13T10:00:19.430Z,9152
2017-09-13T10:01:20.842Z,9272
2017-09-13T10:02:42.343Z,7640
2017-09-13T10:03:43.753Z,8804
2017-09-13T10:05:05.274Z,7616
2017-09-13T10:06:06.687Z,8716
2017-09-13T10:07:28.192Z,11148
2017-09-13T10:08:29.615Z,11516
2017-09-13T10:09:51.131Z,12332
2017-09-13T10:10:52.542Z,10728
2017-09-13T10:12:14.536Z,12096
2017-09-13T10:13:15.952Z,10736
2017-09-13T10:14:37.473Z,10536
2017-09-13T10:15:38.905Z,11884
2017-09-13T10:17:00.388Z,8380
2017-09-13T10:18:01.799Z,7056
2017-09-13T10:19:23.322Z,7340
2017-09-13T10:20:24.735Z,7908
2017-09-13T10:21:46.241Z,7448
2017-09-13T10:22:47.651Z,6452
2017-09-13T10:24:09.156Z,5996
2017-09-13T10:25:10.567Z,4740
2017-09-13T10:26:32.091Z,3300
2017-09-13T10:27:33.503Z,3168
2017-09-13T10:28:55.008Z,2828
2017-09-13T10:29:56.420Z,2984
2017-09-13T10:31:17.940Z,2952
2017-09-13T10:32:19.352Z,3496
2017-09-13T10:33:40.855Z,3556
2017-09-13T10:34:42.261Z,3252
2017-09-13T10:36:03.788Z,4644
2017-09-13T10:37:05.203Z,7384
2017-09-13T10:38:26.702Z,6152
2017-09-13T10:39:28.113Z,5064
2017-09-13T10:40:49.631Z,3608
2017-09-13T10:41:51.043Z,3396
2017-09-13T10:43:12.552Z,3760
2017-09-13T10:44:13.957Z,5380
2017-09-13T10:45:35.478Z,6940
2017-09-13T10:46:36.891Z,6120
2017-09-13T10:47:58.390Z,7744
2017-09-13T10:48:59.799Z,9192
2017-09-13T10:50:21.323Z,9488
2017-09-13T10:51:22.735Z,10100
2017-09-13T10:52:44.237Z,9120
2017-09-13T10:53:45.647Z,10072
2017-09-13T10:55:07.168Z,9408
2017-09-13T10:56:08.580Z,9104
2017-09-13T10:57:30.082Z,8528
2017-09-13T10:58:31.493Z,9416
2017-09-13T10:59:53.017Z,10980
2017-09-13T11:00:54.434Z,11900
2017-09-13T11:02:15.955Z,10444
2017-09-13T11:03:17.369Z,10308
2017-09-13T11:04:38.895Z,7700
2017-09-13T11:05:40.305Z,6528
2017-09-13T11:07:01.808Z,7964
2017-09-13T11:08:03.217Z,9060
2017-09-13T11:09:24.725Z,11604
2017-09-13T11:10:26.136Z,9564
2017-09-13T11:11:47.659Z,9036
2017-09-13T11:12:49.072Z,7692
2017-09-13T11:14:10.576Z,8504
2017-09-13T11:15:11.986Z,8092
2017-09-13T11:16:33.512Z,6120
2017-09-13T11:17:34.923Z,7132
2017-09-13T11:18:56.426Z,4576
2017-09-13T11:19:57.837Z,3948
2017-09-13T11:21:19.364Z,4260
2017-09-13T11:22:20.777Z,4316
2017-09-13T11:23:42.278Z,4952
2017-09-13T11:24:43.688Z,4072
2017-09-13T11:26:05.213Z,4060
2017-09-13T11:27:06.625Z,3532
2017-09-13T11:28:28.126Z,3104
2017-09-13T11:29:29.537Z,3884
2017-09-13T11:30:51.062Z,2948
2017-09-13T11:31:52.473Z,2992
2017-09-13T11:33:13.982Z,5604
2017-09-13T11:34:15.391Z,4800
2017-09-13T11:35:36.913Z,6192
2017-09-13T11:36:38.328Z,6112
2017-09-13T11:37:59.826Z,7712
2017-09-13T11:39:01.236Z,7460
2017-09-13T11:40:22.759Z,5896
2017-09-13T11:41:24.172Z,5200
2017-09-13T11:42:45.678Z,4992
2017-09-13T11:43:47.089Z,4052
2017-09-13T11:45:08.611Z,4260
2017-09-13T11:46:10.022Z,3700
2017-09-13T11:47:31.524Z,3588
2017-09-13T11:48:32.934Z,6728
2017-09-13T11:49:54.458Z,5412
2017-09-13T11:50:55.869Z,4724
2017-09-13T11:52:17.372Z,3816
2017-09-13T11:53:18.784Z,4204
2017-09-13T11:54:40.283Z,4704
2017-09-13T11:55:41.692Z,5048
2017-09-13T11:57:03.214Z,5012
2017-09-13T11:58:04.625Z,4076
2017-09-13T11:59:26.128Z,3500
2017-09-13T12:00:27.539Z,3368
2017-09-13T12:01:49.056Z,3560
2017-09-13T12:02:50.472Z,3180
2017-09-13T12:04:11.966Z,2944
2017-09-13T12:05:13.375Z,3020
2017-09-13T12:06:34.897Z,2912
2017-09-13T12:07:36.313Z,2796
2017-09-13T12:08:57.806Z,2796
2017-09-13T12:09:59.217Z,2760
2017-09-13T12:11:20.735Z,2720
2017-09-13T12:12:22.145Z,2736
2017-09-13T12:13:43.649Z,2728
2017-09-13T12:14:45.059Z,2708
2017-09-13T12:16:06.579Z,2744
2017-09-13T12:17:07.990Z,2768
2017-09-13T12:18:29.493Z,2740
2017-09-13T12:19:30.903Z,2636
2017-09-13T12:20:52.424Z,2676
2017-09-13T12:21:53.837Z,2764
2017-09-13T12:23:15.336Z,2532
2017-09-13T12:24:16.744Z,2696
2017-09-13T12:25:38.263Z,2788
2017-09-13T12:26:39.674Z,2736
2017-09-13T12:28:01.393Z,2812
2017-09-13T12:29:02.826Z,2916
2017-09-13T12:30:24.432Z,3140
2017-09-13T12:31:25.858Z,3372
2017-09-13T12:32:47.365Z,3528
2017-09-13T12:33:48.773Z,3804
2017-09-13T12:35:10.329Z,3540
2017-09-13T12:36:11.751Z,3392
2017-09-13T12:37:33.314Z,4504
2017-09-13T12:38:34.732Z,4864
2017-09-13T12:39:56.234Z,6656
2017-09-13T12:40:57.721Z,5320
2017-09-13T12:42:19.306Z,5508
2017-09-13T12:43:20.714Z,5688
2017-09-13T12:44:42.222Z,3860
2017-09-13T12:45:43.718Z,4920
2017-09-13T12:47:05.273Z,3452
2017-09-13T12:48:06.689Z,3660
2017-09-13T12:49:28.193Z,3960
2017-09-13T12:50:29.603Z,4216
2017-09-13T12:51:51.120Z,5364
2017-09-13T12:52:52.533Z,5296
2017-09-13T12:54:14.032Z,4516
2017-09-13T12:55:15.442Z,6788
2017-09-13T12:56:36.986Z,5848
2017-09-13T12:57:38.395Z,5460
2017-09-13T12:58:59.897Z,5212
2017-09-13T13:00:01.305Z,6944
2017-09-13T13:01:23.094Z,5940
2017-09-13T13:02:24.612Z,5676
2017-09-13T13:03:46.302Z,6668
2017-09-13T13:04:47.719Z,4408
2017-09-13T13:06:09.241Z,3944
2017-09-13T13:07:10.652Z,5392
2017-09-13T13:08:32.152Z,3148
2017-09-13T13:09:33.643Z,3352
2017-09-13T13:10:55.222Z,3312
2017-09-13T13:11:56.715Z,3480
2017-09-13T13:13:18.297Z,5904
2017-09-13T13:14:19.708Z,5332
2017-09-13T13:15:41.295Z,5612
2017-09-13T13:16:42.704Z,5140
2017-09-13T13:18:04.305Z,3840
2017-09-13T13:19:05.717Z,3484
2017-09-13T13:20:27.216Z,3992
2017-09-13T13:21:28.677Z,3872
2017-09-13T13:22:50.201Z,3988
2017-09-13T13:23:51.619Z,3576
2017-09-13T13:25:13.116Z,4980
2017-09-13T13:26:14.531Z,4548
2017-09-13T13:27:36.104Z,4192
2017-09-13T13:28:37.543Z,3392
2017-09-13T13:29:59.042Z,3136
2017-09-13T13:31:00.481Z,3044
2017-09-13T13:32:22.039Z,2780
2017-09-13T13:33:23.461Z,3104
2017-09-13T13:34:45.001Z,2976
2017-09-13T13:35:46.428Z,3240
2017-09-13T13:37:07.957Z,4248
2017-09-13T13:38:09.368Z,3300
2017-09-13T13:39:30.871Z,2860
2017-09-13T13:40:32.280Z,2948
2017-09-13T13:41:53.800Z,3132
2017-09-13T13:42:55.211Z,3148
2017-09-13T13:44:16.711Z,3436
2017-09-13T13:45:18.131Z,3432
2017-09-13T13:46:39.650Z,3524
2017-09-13T13:47:41.056Z,3452
2017-09-13T13:49:02.560Z,2996
2017-09-13T13:50:03.967Z,2848
2017-09-13T13:51:25.492Z,3024
2017-09-13T13:52:26.902Z,3100
2017-09-13T13:53:48.403Z,3256
2017-09-13T13:54:49.813Z,3472
2017-09-13T13:56:11.332Z,5320
2017-09-13T13:57:12.741Z,5132
2017-09-13T13:58:34.244Z,3920
2017-09-13T13:59:35.653Z,3644
2017-09-13T14:00:57.175Z,6084
2017-09-13T14:01:58.585Z,5412
2017-09-13T14:03:20.087Z,4192
2017-09-13T14:04:21.495Z,3944
2017-09-13T14:05:42.995Z,4104
2017-09-13T14:06:44.406Z,4504
2017-09-13T14:08:05.929Z,5760
2017-09-13T14:09:07.338Z,6868
2017-09-13T14:10:28.837Z,4496
2017-09-13T14:11:30.247Z,4736
2017-09-13T14:12:51.771Z,5380
2017-09-13T14:13:53.188Z,4956
2017-09-13T14:15:14.685Z,5416
2017-09-13T14:16:16.092Z,3660
2017-09-13T14:17:37.620Z,3588
2017-09-13T14:18:39.031Z,5644
2017-09-13T14:20:00.534Z,5376
2017-09-13T14:21:01.942Z,6048
2017-09-13T14:22:23.463Z,4668
2017-09-13T14:23:24.876Z,4028
2017-09-13T14:24:46.377Z,3492
2017-09-13T14:25:47.786Z,3288
2017-09-13T14:27:09.309Z,4756
2017-09-13T14:28:10.721Z,5864
2017-09-13T14:29:32.237Z,5708
2017-09-13T14:30:33.646Z,4640
2017-09-13T14:31:55.167Z,3272
2017-09-13T14:32:56.579Z,3240
2017-09-13T14:34:18.079Z,4108
2017-09-13T14:35:19.490Z,4752
2017-09-13T14:36:41.989Z,3460
2017-09-13T14:37:43.356Z,3608
2017-09-13T14:39:04.854Z,5520
2017-09-13T14:40:06.265Z,5824
2017-09-13T14:41:27.869Z,3184
2017-09-13T14:42:29.273Z,2812
2017-09-13T14:43:50.866Z,3116
2017-09-13T14:44:52.352Z,2944
2017-09-13T14:46:13.866Z,3168
2017-09-13T14:47:15.284Z,3432
2017-09-13T14:48:36.792Z,3316
2017-09-13T14:49:38.207Z,2684
2017-09-13T14:50:59.721Z,2524
2017-09-13T14:52:01.133Z,2428
2017-09-13T14:53:22.654Z,2492
2017-09-13T14:54:24.065Z,2488
2017-09-13T14:55:45.568Z,2244
2017-09-13T14:56:46.977Z,2368
2017-09-13T14:58:08.496Z,2372
2017-09-13T14:59:09.906Z,2592
2017-09-13T15:00:31.405Z,3560
2017-09-13T15:01:32.819Z,2972
2017-09-13T15:02:54.339Z,2528
2017-09-13T15:03:55.747Z,2540
2017-09-13T15:05:17.251Z,2472
2017-09-13T15:06:18.660Z,2440
2017-09-13T15:07:40.214Z,2496
2017-09-13T15:08:41.625Z,2476
2017-09-13T15:10:03.126Z,2448
2017-09-13T15:11:04.534Z,2444
2017-09-13T15:12:26.056Z,2440
2017-09-13T15:13:27.464Z,2440
2017-09-13T15:14:48.961Z,2492
2017-09-13T15:15:50.373Z,2520
2017-09-13T15:17:11.888Z,2584
2017-09-13T15:18:13.298Z,2460
2017-09-13T15:19:34.796Z,2652
2017-09-13T15:20:36.220Z,2884
2017-09-13T15:21:57.733Z,2960
2017-09-13T15:22:59.141Z,2964
2017-09-13T15:24:20.639Z,3156
2017-09-13T15:25:22.051Z,3048
2017-09-13T15:26:43.569Z,3820
2017-09-13T15:27:44.983Z,3384
2017-09-13T15:29:06.482Z,3060
2017-09-13T15:30:07.890Z,2808
2017-09-13T15:31:29.409Z,2380
2017-09-13T15:32:30.818Z,2476
2017-09-13T15:33:52.323Z,3612
2017-09-13T15:34:53.735Z,3968
2017-09-13T15:36:15.227Z,3904
2017-09-13T15:37:16.633Z,3132
2017-09-13T15:38:38.153Z,3036
2017-09-13T15:39:39.566Z,3032
2017-09-13T15:41:01.068Z,3736
2017-09-13T15:42:02.479Z,3624
2017-09-13T15:43:23.993Z,3384
2017-09-13T15:44:25.404Z,2924
2017-09-13T15:45:46.901Z,2728
2017-09-13T15:46:48.312Z,3032
2017-09-13T15:48:09.832Z,3088
2017-09-13T15:49:11.244Z,3328
2017-09-13T15:50:32.740Z,4348
2017-09-13T15:51:34.145Z,3776
2017-09-13T15:52:55.668Z,4768
2017-09-13T15:53:57.079Z,4700
2017-09-13T15:55:18.576Z,4632
2017-09-13T15:56:19.989Z,4420
2017-09-13T15:57:41.507Z,2776
2017-09-13T15:58:42.916Z,2412
2017-09-13T16:00:04.413Z,2548
2017-09-13T16:01:05.823Z,2300
2017-09-13T16:02:27.340Z,2392
2017-09-13T16:03:28.753Z,2168
2017-09-13T16:04:50.251Z,1984
2017-09-13T16:05:51.662Z,1932
2017-09-13T16:07:13.181Z,2240
2017-09-13T16:08:14.594Z,2432
2017-09-13T16:09:36.092Z,2336
2017-09-13T16:10:37.500Z,2268
2017-09-13T16:11:59.019Z,2104
2017-09-13T16:13:00.433Z,2292
2017-09-13T16:14:21.929Z,2424
2017-09-13T16:15:23.338Z,2172
2017-09-13T16:16:44.833Z,1776
2017-09-13T16:17:46.238Z,1660
2017-09-13T16:19:07.756Z,1672
2017-09-13T16:20:09.167Z,2132
2017-09-13T16:21:30.662Z,2324